Virginia City, MT (59755)

9:33 PM MDT on April 20, 2015 (GMT -0600)
Varney Bridge | | Change Station
CLOSE
Current Station
Personal Weather Station
Location: Ennis, MT
Elevation: 5328 ft
Nearby Weather Stations

Elev 5328 ft 45.23 °N, 111.76 °W | Updated 3 minutes ago

Clear
Clear
47.4 °F
Feels Like 44 °F
N
8.0
Wind Variable Wind from West
Gusts 10.0 mph

Today
High -- | Low -- °F
--% Chance of Precip.
Yesterday
High -- | Low -- °F
Precip. -- in
6:34 AM 8:19 PM
Waxing Crescent, 8% visible
Pressure 29.80 in
Visibility 10.0 miles
Clouds Clear
Windchill 44 °F
Dew Point 26 °F
Humidity 42%
Rainfall 0.00 in
Snow Depth Not available.
UV 0 out of 12
Pollen 8.10 out of 12
Air Quality Not available.
Flu Activity Regional
METAR KDLN 210253Z AUTO 00000KT 10SM CLR 13/M04 A2986 RMK AO2 SLP090 T01331044 53001

More Conditions Fewer Conditions

Pressure 29.80 in
Visibility 10.0 miles
Clouds Clear
Windchill 44 °F
Dew Point 26 °F
Humidity 42%
Rainfall 0.00 in
Snow Depth Not available.
UV 0 out of 12
Pollen 8.10 out of 12
Air Quality Not available.
Flu Activity Regional
METAR KDLN 210253Z AUTO 00000KT 10SM CLR 13/M04 A2986 RMK AO2 SLP090 T01331044 53001

More Conditions Fewer Conditions

10-Day Weather Forecast

Almanac

Astronomy

Apr. 20, 2015 Rise Set
Actual Time
Civil Twilight
Nautical Twilight
Astronomical Twilight
Moon
Length of Visible Light
Length of Day
Tomorrow will be .
, % of the Moon is Illuminated

Today's Extremes

State Highs State Lows

Community

WunderPhotos

Upload Photos

1,815,296 photos uploaded!

WunderBlogs® & News

Nearby

Air Quality

  Air Quality AQ Index Pollutant
Not available.

Snow Depth

Station Depth Elevation

Earthquake Activity

City Distance Mag. Time & Date
Minimum magnitude displayed is 2.5.

Coastal Water Temperatures

Place Temperature

Stations

Nearby Weather Stations

Station Location Temp. Windchill Dew Point Humidity Wind Precip. Elev Updated Type